sensor_id;sensor_type;location;lat;lon;timestamp;temperature;humidity
34572;DHT22;20808;48.974;8.452;2022-11-15T00:01:15;9.30;99.90
34572;DHT22;20808;48.974;8.452;2022-11-15T00:03:43;9.30;99.90
34572;DHT22;20808;48.974;8.452;2022-11-15T00:06:09;9.40;99.90
34572;DHT22;20808;48.974;8.452;2022-11-15T00:08:36;9.40;99.90
34572;DHT22;20808;48.974;8.452;2022-11-15T00:11:04;9.60;99.90
34572;DHT22;20808;48.974;8.452;2022-11-15T00:13:31;9.80;99.90
34572;DHT22;20808;48.974;8.452;2022-11-15T00:15:59;9.90;99.90
34572;DHT22;20808;48.974;8.452;2022-11-15T00:18:26;10.00;99.90
34572;DHT22;20808;48.974;8.452;2022-11-15T00:20:53;10.20;99.90
34572;DHT22;20808;48.974;8.452;2022-11-15T00:23:21;10.30;99.90
34572;DHT22;20808;48.974;8.452;2022-11-15T00:25:55;10.50;99.90
34572;DHT22;20808;48.974;8.452;2022-11-15T00:28:23;10.50;99.90
34572;DHT22;20808;48.974;8.452;2022-11-15T00:30:50;10.40;99.90
34572;DHT22;20808;48.974;8.452;2022-11-15T00:33:17;10.40;99.90
34572;DHT22;20808;48.974;8.452;2022-11-15T00:35:44;10.40;99.90
34572;DHT22;20808;48.974;8.452;2022-11-15T00:38:11;10.40;99.90
34572;DHT22;20808;48.974;8.452;2022-11-15T00:40:37;10.30;99.90
34572;DHT22;20808;48.974;8.452;2022-11-15T00:43:04;10.30;99.90
34572;DHT22;20808;48.974;8.452;2022-11-15T00:45:32;10.10;99.90
34572;DHT22;20808;48.974;8.452;2022-11-15T00:47:59;10.00;99.90
34572;DHT22;20808;48.974;8.452;2022-11-15T00:50:26;9.90;99.90
34572;DHT22;20808;48.974;8.452;2022-11-15T00:52:53;9.70;99.90
34572;DHT22;20808;48.974;8.452;2022-11-15T00:55:19;9.60;99.90
34572;DHT22;20808;48.974;8.452;2022-11-15T00:57:46;9.50;99.90
34572;DHT22;20808;48.974;8.452;2022-11-15T01:00:14;9.40;99.90
34572;DHT22;20808;48.974;8.452;2022-11-15T01:02:42;9.30;99.90
34572;DHT22;20808;48.974;8.452;2022-11-15T01:05:09;9.30;99.90
34572;DHT22;20808;48.974;8.452;2022-11-15T01:07:36;9.30;99.90
34572;DHT22;20808;48.974;8.452;2022-11-15T01:10:03;9.20;99.90
34572;DHT22;20808;48.974;8.452;2022-11-15T01:12:30;9.20;99.90
34572;DHT22;20808;48.974;8.452;2022-11-15T01:14:57;9.10;99.90
34572;DHT22;20808;48.974;8.452;2022-11-15T01:17:24;9.00;99.90
34572;DHT22;20808;48.974;8.452;2022-11-15T01:19:52;9.00;99.90
34572;DHT22;20808;48.974;8.452;2022-11-15T01:22:19;9.00;99.90
34572;DHT22;20808;48.974;8.452;2022-11-15T01:24:45;9.00;99.90
34572;DHT22;20808;48.974;8.452;2022-11-15T01:27:12;9.00;99.90
34572;DHT22;20808;48.974;8.452;2022-11-15T01:29:39;9.30;99.90
34572;DHT22;20808;48.974;8.452;2022-11-15T01:32:06;9.50;99.90
34572;DHT22;20808;48.974;8.452;2022-11-15T01:34:32;9.70;99.90
34572;DHT22;20808;48.974;8.452;2022-11-15T01:37:01;9.80;99.90
34572;DHT22;20808;48.974;8.452;2022-11-15T01:39:27;9.90;99.90
34572;DHT22;20808;48.974;8.452;2022-11-15T01:41:54;9.90;99.90
34572;DHT22;20808;48.974;8.452;2022-11-15T01:44:41;10.00;99.90
34572;DHT22;20808;48.974;8.452;2022-11-15T01:47:11;10.10;99.90
34572;DHT22;20808;48.974;8.452;2022-11-15T01:49:45;10.10;99.90
34572;DHT22;20808;48.974;8.452;2022-11-15T01:52:19;10.20;99.90
34572;DHT22;20808;48.974;8.452;2022-11-15T01:54:47;10.20;99.90
34572;DHT22;20808;48.974;8.452;2022-11-15T01:57:15;10.20;99.90
34572;DHT22;20808;48.974;8.452;2022-11-15T01:59:43;10.30;99.90
34572;DHT22;20808;48.974;8.452;2022-11-15T02:02:10;10.30;99.90
34572;DHT22;20808;48.974;8.452;2022-11-15T02:04:41;10.50;99.90
34572;DHT22;20808;48.974;8.452;2022-11-15T02:07:10;10.50;62.50
34572;DHT22;20808;48.974;8.452;2022-11-15T02:09:39;10.60;21.60
34572;DHT22;20808;48.974;8.452;2022-11-15T02:12:07;10.70;1.00
34572;DHT22;20808;48.974;8.452;2022-11-15T02:14:36;10.70;1.00
34572;DHT22;20808;48.974;8.452;2022-11-15T02:17:13;10.70;1.00
34572;DHT22;20808;48.974;8.452;2022-11-15T02:20:11;10.70;1.00
34572;DHT22;20808;48.974;8.452;2022-11-15T02:22:50;10.50;25.90
34572;DHT22;20808;48.974;8.452;2022-11-15T02:25:38;10.50;60.70
34572;DHT22;20808;48.974;8.452;2022-11-15T02:28:39;10.50;78.70
34572;DHT22;20808;48.974;8.452;2022-11-15T02:31:11;10.40;73.00
34572;DHT22;20808;48.974;8.452;2022-11-15T02:33:44;10.60;8.30
34572;DHT22;20808;48.974;8.452;2022-11-15T02:36:18;10.70;1.00
34572;DHT22;20808;48.974;8.452;2022-11-15T02:38:56;10.70;1.00
34572;DHT22;20808;48.974;8.452;2022-11-15T02:41:31;10.80;1.00
34572;DHT22;20808;48.974;8.452;2022-11-15T02:44:01;10.80;1.00
34572;DHT22;20808;48.974;8.452;2022-11-15T02:46:34;10.70;1.00
34572;DHT22;20808;48.974;8.452;2022-11-15T02:49:19;10.70;1.00
34572;DHT22;20808;48.974;8.452;2022-11-15T02:51:47;10.70;1.00
34572;DHT22;20808;48.974;8.452;2022-11-15T02:54:19;10.70;1.00
34572;DHT22;20808;48.974;8.452;2022-11-15T02:56:47;10.70;1.00
34572;DHT22;20808;48.974;8.452;2022-11-15T02:59:36;10.80;1.00
34572;DHT22;20808;48.974;8.452;2022-11-15T03:02:18;10.80;1.00
34572;DHT22;20808;48.974;8.452;2022-11-15T03:04:53;10.90;1.00
34572;DHT22;20808;48.974;8.452;2022-11-15T03:07:25;11.10;1.00
34572;DHT22;20808;48.974;8.452;2022-11-15T03:10:04;11.10;1.00
34572;DHT22;20808;48.974;8.452;2022-11-15T03:12:36;11.20;1.00
34572;DHT22;20808;48.974;8.452;2022-11-15T03:15:07;11.20;99.90
34572;DHT22;20808;48.974;8.452;2022-11-15T03:17:40;11.30;99.90
34572;DHT22;20808;48.974;8.452;2022-11-15T03:20:08;11.30;99.90
34572;DHT22;20808;48.974;8.452;2022-11-15T03:22:39;11.40;99.90
34572;DHT22;20808;48.974;8.452;2022-11-15T03:25:10;11.40;1.00
34572;DHT22;20808;48.974;8.452;2022-11-15T03:27:42;11.40;1.00
34572;DHT22;20808;48.974;8.452;2022-11-15T03:30:11;11.50;1.00
34572;DHT22;20808;48.974;8.452;2022-11-15T03:32:44;11.50;1.00
34572;DHT22;20808;48.974;8.452;2022-11-15T03:35:14;11.60;1.00
34572;DHT22;20808;48.974;8.452;2022-11-15T03:37:47;11.60;99.90
34572;DHT22;20808;48.974;8.452;2022-11-15T03:40:16;11.60;99.90
34572;DHT22;20808;48.974;8.452;2022-11-15T03:42:48;11.60;1.00
34572;DHT22;20808;48.974;8.452;2022-11-15T03:45:21;11.60;1.00
34572;DHT22;20808;48.974;8.452;2022-11-15T03:47:54;11.60;99.90
34572;DHT22;20808;48.974;8.452;2022-11-15T03:50:25;11.50;1.00
34572;DHT22;20808;48.974;8.452;2022-11-15T03:52:54;11.50;1.00
34572;DHT22;20808;48.974;8.452;2022-11-15T03:55:22;11.50;1.00
34572;DHT22;20808;48.974;8.452;2022-11-15T03:57:52;11.50;1.00
34572;DHT22;20808;48.974;8.452;2022-11-15T04:00:20;11.40;22.10
34572;DHT22;20808;48.974;8.452;2022-11-15T04:02:46;11.30;99.90
34572;DHT22;20808;48.974;8.452;2022-11-15T04:05:15;11.30;99.90
34572;DHT22;20808;48.974;8.452;2022-11-15T04:07:41;11.20;1.00
34572;DHT22;20808;48.974;8.452;2022-11-15T04:10:09;11.10;1.00
34572;DHT22;20808;48.974;8.452;2022-11-15T04:12:40;11.00;1.00
34572;DHT22;20808;48.974;8.452;2022-11-15T04:15:10;11.10;1.00
34572;DHT22;20808;48.974;8.452;2022-11-15T04:17:39;11.10;1.00
34572;DHT22;20808;48.974;8.452;2022-11-15T04:20:09;11.10;1.00
34572;DHT22;20808;48.974;8.452;2022-11-15T04:22:55;11.10;1.00
34572;DHT22;20808;48.974;8.452;2022-11-15T04:25:41;11.00;1.00
34572;DHT22;20808;48.974;8.452;2022-11-15T04:28:08;10.90;1.00
34572;DHT22;20808;48.974;8.452;2022-11-15T04:30:35;10.80;1.00
34572;DHT22;20808;48.974;8.452;2022-11-15T04:33:02;10.70;44.70
34572;DHT22;20808;48.974;8.452;2022-11-15T04:35:29;10.60;91.30
34572;DHT22;20808;48.974;8.452;2022-11-15T04:37:57;10.40;99.90
34572;DHT22;20808;48.974;8.452;2022-11-15T04:40:23;10.30;99.90
34572;DHT22;20808;48.974;8.452;2022-11-15T04:42:50;10.20;99.90
34572;DHT22;20808;48.974;8.452;2022-11-15T04:45:17;10.20;99.90
34572;DHT22;20808;48.974;8.452;2022-11-15T04:47:44;10.20;99.90
34572;DHT22;20808;48.974;8.452;2022-11-15T04:50:11;10.10;99.90
34572;DHT22;20808;48.974;8.452;2022-11-15T04:52:40;10.10;99.90
34572;DHT22;20808;48.974;8.452;2022-11-15T04:55:09;10.10;99.90
34572;DHT22;20808;48.974;8.452;2022-11-15T04:57:36;10.10;99.90
34572;DHT22;20808;48.974;8.452;2022-11-15T05:00:05;10.00;99.90
34572;DHT22;20808;48.974;8.452;2022-11-15T05:02:32;9.90;99.90
34572;DHT22;20808;48.974;8.452;2022-11-15T05:05:13;9.70;99.90
34572;DHT22;20808;48.974;8.452;2022-11-15T05:07:39;9.60;99.90
34572;DHT22;20808;48.974;8.452;2022-11-15T05:10:08;9.50;99.90
34572;DHT22;20808;48.974;8.452;2022-11-15T05:12:35;9.40;99.90
34572;DHT22;20808;48.974;8.452;2022-11-15T05:15:02;9.40;99.90
34572;DHT22;20808;48.974;8.452;2022-11-15T05:17:29;9.40;99.90
34572;DHT22;20808;48.974;8.452;2022-11-15T05:19:56;9.30;99.90
34572;DHT22;20808;48.974;8.452;2022-11-15T05:22:23;9.40;99.90
34572;DHT22;20808;48.974;8.452;2022-11-15T05:24:50;9.40;99.90
34572;DHT22;20808;48.974;8.452;2022-11-15T05:27:18;9.40;99.90
34572;DHT22;20808;48.974;8.452;2022-11-15T05:29:45;9.40;99.90
34572;DHT22;20808;48.974;8.452;2022-11-15T05:32:12;9.40;99.90
34572;DHT22;20808;48.974;8.452;2022-11-15T05:34:39;9.40;99.90
34572;DHT22;20808;48.974;8.452;2022-11-15T05:37:05;9.30;99.90
34572;DHT22;20808;48.974;8.452;2022-11-15T05:39:32;9.20;99.90
34572;DHT22;20808;48.974;8.452;2022-11-15T05:42:04;9.00;99.90
34572;DHT22;20808;48.974;8.452;2022-11-15T05:44:36;8.80;99.90
34572;DHT22;20808;48.974;8.452;2022-11-15T05:47:04;8.90;99.90
34572;DHT22;20808;48.974;8.452;2022-11-15T05:49:34;8.90;99.90
34572;DHT22;20808;48.974;8.452;2022-11-15T05:52:04;8.90;99.90
34572;DHT22;20808;48.974;8.452;2022-11-15T05:54:32;9.00;99.90
34572;DHT22;20808;48.974;8.452;2022-11-15T05:56:59;9.00;99.90
34572;DHT22;20808;48.974;8.452;2022-11-15T05:59:28;9.20;99.90
34572;DHT22;20808;48.974;8.452;2022-11-15T06:01:57;9.40;99.90
34572;DHT22;20808;48.974;8.452;2022-11-15T06:04:23;9.60;99.90
34572;DHT22;20808;48.974;8.452;2022-11-15T06:06:50;9.70;99.90
34572;DHT22;20808;48.974;8.452;2022-11-15T06:09:17;9.70;99.90
34572;DHT22;20808;48.974;8.452;2022-11-15T06:11:44;9.70;99.90
34572;DHT22;20808;48.974;8.452;2022-11-15T06:14:10;9.70;99.90
34572;DHT22;20808;48.974;8.452;2022-11-15T06:16:37;9.70;99.90
34572;DHT22;20808;48.974;8.452;2022-11-15T06:19:06;9.70;99.90
34572;DHT22;20808;48.974;8.452;2022-11-15T06:21:33;9.60;99.90
34572;DHT22;20808;48.974;8.452;2022-11-15T06:23:59;9.60;99.90
34572;DHT22;20808;48.974;8.452;2022-11-15T06:26:26;9.60;99.90
34572;DHT22;20808;48.974;8.452;2022-11-15T06:28:53;9.70;99.90
34572;DHT22;20808;48.974;8.452;2022-11-15T06:31:20;9.60;99.90
34572;DHT22;20808;48.974;8.452;2022-11-15T06:33:47;9.50;99.90
34572;DHT22;20808;48.974;8.452;2022-11-15T06:36:16;9.50;99.90
34572;DHT22;20808;48.974;8.452;2022-11-15T06:38:43;9.50;99.90
34572;DHT22;20808;48.974;8.452;2022-11-15T06:41:12;9.50;99.90
34572;DHT22;20808;48.974;8.452;2022-11-15T06:43:40;9.40;99.90
34572;DHT22;20808;48.974;8.452;2022-11-15T06:46:07;9.40;99.90
34572;DHT22;20808;48.974;8.452;2022-11-15T06:48:34;9.40;99.90
34572;DHT22;20808;48.974;8.452;2022-11-15T06:51:03;9.50;99.90
34572;DHT22;20808;48.974;8.452;2022-11-15T06:53:31;9.50;99.90
34572;DHT22;20808;48.974;8.452;2022-11-15T06:55:59;9.50;99.90
34572;DHT22;20808;48.974;8.452;2022-11-15T06:58:27;9.70;99.90
34572;DHT22;20808;48.974;8.452;2022-11-15T07:00:58;9.90;99.90
34572;DHT22;20808;48.974;8.452;2022-11-15T07:03:25;10.10;99.90
34572;DHT22;20808;48.974;8.452;2022-11-15T07:05:53;10.40;99.90
34572;DHT22;20808;48.974;8.452;2022-11-15T07:08:21;10.50;99.90
34572;DHT22;20808;48.974;8.452;2022-11-15T07:10:50;10.70;49.80
34572;DHT22;20808;48.974;8.452;2022-11-15T07:13:17;10.70;1.00
34572;DHT22;20808;48.974;8.452;2022-11-15T07:15:44;10.80;1.00
34572;DHT22;20808;48.974;8.452;2022-11-15T07:18:10;10.80;1.00
34572;DHT22;20808;48.974;8.452;2022-11-15T07:20:37;10.80;1.00
34572;DHT22;20808;48.974;8.452;2022-11-15T07:23:05;10.80;1.00
34572;DHT22;20808;48.974;8.452;2022-11-15T07:25:32;10.80;1.00
34572;DHT22;20808;48.974;8.452;2022-11-15T07:28:00;10.80;1.00
34572;DHT22;20808;48.974;8.452;2022-11-15T07:30:27;10.90;1.00
34572;DHT22;20808;48.974;8.452;2022-11-15T07:32:54;10.90;1.00
34572;DHT22;20808;48.974;8.452;2022-11-15T07:35:21;10.90;1.00
34572;DHT22;20808;48.974;8.452;2022-11-15T07:37:55;10.90;1.00
34572;DHT22;20808;48.974;8.452;2022-11-15T07:40:23;10.90;1.00
34572;DHT22;20808;48.974;8.452;2022-11-15T07:42:50;10.90;1.00
34572;DHT22;20808;48.974;8.452;2022-11-15T07:45:21;10.90;1.00
34572;DHT22;20808;48.974;8.452;2022-11-15T07:47:48;11.00;1.00
34572;DHT22;20808;48.974;8.452;2022-11-15T07:50:16;11.00;1.00
34572;DHT22;20808;48.974;8.452;2022-11-15T07:52:43;11.10;1.00
34572;DHT22;20808;48.974;8.452;2022-11-15T07:55:09;11.00;1.00
34572;DHT22;20808;48.974;8.452;2022-11-15T07:57:36;11.10;1.00
34572;DHT22;20808;48.974;8.452;2022-11-15T08:00:04;11.10;1.00
34572;DHT22;20808;48.974;8.452;2022-11-15T08:02:33;11.10;1.00
34572;DHT22;20808;48.974;8.452;2022-11-15T08:04:59;11.00;1.00
34572;DHT22;20808;48.974;8.452;2022-11-15T08:07:28;11.10;1.00
34572;DHT22;20808;48.974;8.452;2022-11-15T08:09:55;11.10;1.00
34572;DHT22;20808;48.974;8.452;2022-11-15T08:12:22;11.20;1.00
34572;DHT22;20808;48.974;8.452;2022-11-15T08:14:49;11.30;1.00
34572;DHT22;20808;48.974;8.452;2022-11-15T08:17:16;11.50;1.00
34572;DHT22;20808;48.974;8.452;2022-11-15T08:19:44;11.60;1.00
34572;DHT22;20808;48.974;8.452;2022-11-15T08:22:11;11.70;1.00
34572;DHT22;20808;48.974;8.452;2022-11-15T08:24:38;11.80;1.00
34572;DHT22;20808;48.974;8.452;2022-11-15T08:27:04;11.90;99.90
34572;DHT22;20808;48.974;8.452;2022-11-15T08:29:40;12.10;1.00
34572;DHT22;20808;48.974;8.452;2022-11-15T08:32:08;12.30;1.00
34572;DHT22;20808;48.974;8.452;2022-11-15T08:34:34;12.30;1.00
34572;DHT22;20808;48.974;8.452;2022-11-15T08:37:03;12.30;1.00
34572;DHT22;20808;48.974;8.452;2022-11-15T08:39:29;12.40;1.00
34572;DHT22;20808;48.974;8.452;2022-11-15T08:41:57;12.30;1.00
34572;DHT22;20808;48.974;8.452;2022-11-15T08:44:23;12.40;1.00
34572;DHT22;20808;48.974;8.452;2022-11-15T08:46:50;12.40;1.00
34572;DHT22;20808;48.974;8.452;2022-11-15T08:49:17;12.40;1.00
34572;DHT22;20808;48.974;8.452;2022-11-15T08:51:45;12.40;1.00
34572;DHT22;20808;48.974;8.452;2022-11-15T08:54:13;12.50;99.90
34572;DHT22;20808;48.974;8.452;2022-11-15T08:56:40;12.60;99.90
34572;DHT22;20808;48.974;8.452;2022-11-15T08:59:07;12.70;1.00
34572;DHT22;20808;48.974;8.452;2022-11-15T09:01:34;12.80;1.00
34572;DHT22;20808;48.974;8.452;2022-11-15T09:04:00;12.80;1.00
34572;DHT22;20808;48.974;8.452;2022-11-15T09:06:27;12.80;99.90
34572;DHT22;20808;48.974;8.452;2022-11-15T09:08:54;12.80;34.10
34572;DHT22;20808;48.974;8.452;2022-11-15T09:11:22;12.90;1.00
34572;DHT22;20808;48.974;8.452;2022-11-15T09:13:49;12.90;1.00
34572;DHT22;20808;48.974;8.452;2022-11-15T09:16:17;13.00;99.90
34572;DHT22;20808;48.974;8.452;2022-11-15T09:18:43;13.00;1.00
34572;DHT22;20808;48.974;8.452;2022-11-15T09:21:11;13.10;1.00
34572;DHT22;20808;48.974;8.452;2022-11-15T09:23:38;13.10;1.00
34572;DHT22;20808;48.974;8.452;2022-11-15T09:26:05;13.30;99.90
34572;DHT22;20808;48.974;8.452;2022-11-15T09:28:34;13.40;1.00
34572;DHT22;20808;48.974;8.452;2022-11-15T09:31:02;13.50;1.00
34572;DHT22;20808;48.974;8.452;2022-11-15T09:33:30;13.50;99.90
34572;DHT22;20808;48.974;8.452;2022-11-15T09:36:00;13.60;99.90
34572;DHT22;20808;48.974;8.452;2022-11-15T09:38:27;13.60;1.00
34572;DHT22;20808;48.974;8.452;2022-11-15T09:41:10;13.60;99.90
34572;DHT22;20808;48.974;8.452;2022-11-15T09:43:47;13.70;99.90
34572;DHT22;20808;48.974;8.452;2022-11-15T09:46:21;13.60;99.90
34572;DHT22;20808;48.974;8.452;2022-11-15T09:48:51;13.70;1.00
34572;DHT22;20808;48.974;8.452;2022-11-15T09:51:29;13.70;1.00
34572;DHT22;20808;48.974;8.452;2022-11-15T09:54:08;13.60;1.00
34572;DHT22;20808;48.974;8.452;2022-11-15T09:56:39;13.70;99.90
34572;DHT22;20808;48.974;8.452;2022-11-15T09:59:23;13.60;99.90
34572;DHT22;20808;48.974;8.452;2022-11-15T10:01:59;13.70;1.00
34572;DHT22;20808;48.974;8.452;2022-11-15T10:04:28;13.80;1.00
34572;DHT22;20808;48.974;8.452;2022-11-15T10:07:13;13.80;1.00
34572;DHT22;20808;48.974;8.452;2022-11-15T10:09:46;13.80;1.00
34572;DHT22;20808;48.974;8.452;2022-11-15T10:12:15;13.70;1.00
34572;DHT22;20808;48.974;8.452;2022-11-15T10:14:45;13.80;99.90
34572;DHT22;20808;48.974;8.452;2022-11-15T10:17:26;13.70;1.00
34572;DHT22;20808;48.974;8.452;2022-11-15T10:20:05;13.60;1.00
34572;DHT22;20808;48.974;8.452;2022-11-15T10:22:38;13.60;99.90
34572;DHT22;20808;48.974;8.452;2022-11-15T10:25:22;13.60;1.00
34572;DHT22;20808;48.974;8.452;2022-11-15T10:27:57;13.50;92.00
34572;DHT22;20808;48.974;8.452;2022-11-15T10:30:32;13.40;1.00
34572;DHT22;20808;48.974;8.452;2022-11-15T10:33:10;13.30;1.00
34572;DHT22;20808;48.974;8.452;2022-11-15T10:35:38;13.30;99.90
34572;DHT22;20808;48.974;8.452;2022-11-15T10:38:06;13.20;1.00
34572;DHT22;20808;48.974;8.452;2022-11-15T10:40:35;13.10;99.90
34572;DHT22;20808;48.974;8.452;2022-11-15T10:43:15;13.20;1.00
34572;DHT22;20808;48.974;8.452;2022-11-15T10:45:44;13.00;99.90
34572;DHT22;20808;48.974;8.452;2022-11-15T10:48:23;13.00;1.00
34572;DHT22;20808;48.974;8.452;2022-11-15T10:50:51;12.90;1.00
34572;DHT22;20808;48.974;8.452;2022-11-15T10:53:29;13.00;1.00
34572;DHT22;20808;48.974;8.452;2022-11-15T10:56:01;13.00;1.00
34572;DHT22;20808;48.974;8.452;2022-11-15T10:58:34;12.90;1.00
34572;DHT22;20808;48.974;8.452;2022-11-15T11:01:12;13.10;1.00
34572;DHT22;20808;48.974;8.452;2022-11-15T11:03:40;13.30;1.00
34572;DHT22;20808;48.974;8.452;2022-11-15T11:06:11;13.40;1.00
34572;DHT22;20808;48.974;8.452;2022-11-15T11:08:38;13.60;1.00
34572;DHT22;20808;48.974;8.452;2022-11-15T11:11:06;13.80;1.00
34572;DHT22;20808;48.974;8.452;2022-11-15T11:13:35;13.90;1.00
34572;DHT22;20808;48.974;8.452;2022-11-15T11:16:23;14.10;1.00
34572;DHT22;20808;48.974;8.452;2022-11-15T11:19:01;14.30;1.00
34572;DHT22;20808;48.974;8.452;2022-11-15T11:21:39;14.40;1.00
34572;DHT22;20808;48.974;8.452;2022-11-15T11:24:13;14.40;1.00
34572;DHT22;20808;48.974;8.452;2022-11-15T11:26:46;14.40;1.00
34572;DHT22;20808;48.974;8.452;2022-11-15T11:29:28;14.30;99.90
34572;DHT22;20808;48.974;8.452;2022-11-15T11:32:09;14.30;99.90
34572;DHT22;20808;48.974;8.452;2022-11-15T11:34:48;14.20;1.00
34572;DHT22;20808;48.974;8.452;2022-11-15T11:37:23;14.30;1.00
34572;DHT22;20808;48.974;8.452;2022-11-15T11:40:01;14.20;1.00
34572;DHT22;20808;48.974;8.452;2022-11-15T11:42:36;14.20;99.90
34572;DHT22;20808;48.974;8.452;2022-11-15T11:45:15;14.30;1.00
34572;DHT22;20808;48.974;8.452;2022-11-15T11:47:51;14.40;1.00
34572;DHT22;20808;48.974;8.452;2022-11-15T11:50:26;14.50;1.00
34572;DHT22;20808;48.974;8.452;2022-11-15T11:52:57;14.50;1.00
34572;DHT22;20808;48.974;8.452;2022-11-15T11:55:28;14.50;99.90
34572;DHT22;20808;48.974;8.452;2022-11-15T11:58:04;14.50;1.00
34572;DHT22;20808;48.974;8.452;2022-11-15T12:00:35;14.60;99.90
34572;DHT22;20808;48.974;8.452;2022-11-15T12:03:11;14.50;1.00
34572;DHT22;20808;48.974;8.452;2022-11-15T12:05:43;14.40;1.00
34572;DHT22;20808;48.974;8.452;2022-11-15T12:08:28;14.40;51.90
34572;DHT22;20808;48.974;8.452;2022-11-15T12:11:03;14.50;1.00
34572;DHT22;20808;48.974;8.452;2022-11-15T12:13:31;14.40;1.00
34572;DHT22;20808;48.974;8.452;2022-11-15T12:16:07;14.40;99.90
34572;DHT22;20808;48.974;8.452;2022-11-15T12:18:38;14.30;1.00
34572;DHT22;20808;48.974;8.452;2022-11-15T12:21:08;14.20;1.00
34572;DHT22;20808;48.974;8.452;2022-11-15T12:23:44;14.20;99.90
34572;DHT22;20808;48.974;8.452;2022-11-15T12:26:17;14.30;18.70
34572;DHT22;20808;48.974;8.452;2022-11-15T12:28:48;14.50;1.00
34572;DHT22;20808;48.974;8.452;2022-11-15T12:31:21;14.60;99.90
34572;DHT22;20808;48.974;8.452;2022-11-15T12:33:55;14.50;1.00
34572;DHT22;20808;48.974;8.452;2022-11-15T12:36:36;14.70;1.00
34572;DHT22;20808;48.974;8.452;2022-11-15T12:39:04;14.90;99.90
34572;DHT22;20808;48.974;8.452;2022-11-15T12:41:32;14.90;1.00
34572;DHT22;20808;48.974;8.452;2022-11-15T12:44:00;15.10;1.00
34572;DHT22;20808;48.974;8.452;2022-11-15T12:46:59;15.50;99.90
34572;DHT22;20808;48.974;8.452;2022-11-15T12:49:46;15.80;1.00
34572;DHT22;20808;48.974;8.452;2022-11-15T12:52:13;16.00;1.00
34572;DHT22;20808;48.974;8.452;2022-11-15T12:57:50;16.20;99.90
34572;DHT22;20808;48.974;8.452;2022-11-15T13:00:44;16.10;1.00
34572;DHT22;20808;48.974;8.452;2022-11-15T13:03:26;16.20;99.90
34572;DHT22;20808;48.974;8.452;2022-11-15T13:06:34;16.20;99.90
34572;DHT22;20808;48.974;8.452;2022-11-15T13:12:10;17.10;1.00
34572;DHT22;20808;48.974;8.452;2022-11-15T13:14:50;17.20;1.00
34572;DHT22;20808;48.974;8.452;2022-11-15T13:17:28;16.90;1.00
34572;DHT22;20808;48.974;8.452;2022-11-15T13:20:00;16.50;1.00
34572;DHT22;20808;48.974;8.452;2022-11-15T13:22:27;16.30;1.00
34572;DHT22;20808;48.974;8.452;2022-11-15T13:25:21;16.10;1.00
34572;DHT22;20808;48.974;8.452;2022-11-15T13:27:50;16.20;1.00
34572;DHT22;20808;48.974;8.452;2022-11-15T13:30:21;16.30;1.00
34572;DHT22;20808;48.974;8.452;2022-11-15T13:32:48;16.30;1.00
34572;DHT22;20808;48.974;8.452;2022-11-15T13:35:20;16.20;1.00
34572;DHT22;20808;48.974;8.452;2022-11-15T13:37:48;16.00;1.00
34572;DHT22;20808;48.974;8.452;2022-11-15T13:40:24;15.80;1.00
34572;DHT22;20808;48.974;8.452;2022-11-15T13:42:53;15.60;99.90
34572;DHT22;20808;48.974;8.452;2022-11-15T13:45:20;15.60;1.00
34572;DHT22;20808;48.974;8.452;2022-11-15T13:47:57;15.60;99.90
34572;DHT22;20808;48.974;8.452;2022-11-15T13:50:26;15.60;99.90
34572;DHT22;20808;48.974;8.452;2022-11-15T13:52:57;15.50;1.00
34572;DHT22;20808;48.974;8.452;2022-11-15T13:55:26;15.60;1.00
34572;DHT22;20808;48.974;8.452;2022-11-15T13:57:56;15.50;1.00
34572;DHT22;20808;48.974;8.452;2022-11-15T14:00:29;15.40;1.00
34572;DHT22;20808;48.974;8.452;2022-11-15T14:02:57;15.40;1.00
34572;DHT22;20808;48.974;8.452;2022-11-15T14:05:31;15.40;1.00
34572;DHT22;20808;48.974;8.452;2022-11-15T14:08:00;15.50;1.00
34572;DHT22;20808;48.974;8.452;2022-11-15T14:10:31;15.40;1.00
34572;DHT22;20808;48.974;8.452;2022-11-15T14:12:59;15.30;99.90
34572;DHT22;20808;48.974;8.452;2022-11-15T14:15:29;15.20;1.00
34572;DHT22;20808;48.974;8.452;2022-11-15T14:17:56;15.10;1.00
34572;DHT22;20808;48.974;8.452;2022-11-15T14:20:31;15.10;1.00
34572;DHT22;20808;48.974;8.452;2022-11-15T14:22:59;15.00;99.90
34572;DHT22;20808;48.974;8.452;2022-11-15T14:25:27;15.00;1.00
34572;DHT22;20808;48.974;8.452;2022-11-15T14:28:16;15.00;1.00
34572;DHT22;20808;48.974;8.452;2022-11-15T14:30:56;15.00;1.00
34572;DHT22;20808;48.974;8.452;2022-11-15T14:33:25;14.90;68.50
34572;DHT22;20808;48.974;8.452;2022-11-15T14:35:56;14.90;99.90
34572;DHT22;20808;48.974;8.452;2022-11-15T14:38:24;14.90;99.90
34572;DHT22;20808;48.974;8.452;2022-11-15T14:40:51;14.90;1.00
34572;DHT22;20808;48.974;8.452;2022-11-15T14:43:20;14.90;1.00
34572;DHT22;20808;48.974;8.452;2022-11-15T14:45:47;14.90;99.90
34572;DHT22;20808;48.974;8.452;2022-11-15T14:48:14;14.90;1.00
34572;DHT22;20808;48.974;8.452;2022-11-15T14:50:40;14.80;99.90
34572;DHT22;20808;48.974;8.452;2022-11-15T14:53:11;14.80;1.00
34572;DHT22;20808;48.974;8.452;2022-11-15T14:55:38;14.70;1.00
34572;DHT22;20808;48.974;8.452;2022-11-15T14:58:06;14.70;1.00
34572;DHT22;20808;48.974;8.452;2022-11-15T15:00:35;14.60;1.00
34572;DHT22;20808;48.974;8.452;2022-11-15T15:03:03;14.50;1.00
34572;DHT22;20808;48.974;8.452;2022-11-15T15:05:32;14.40;97.50
34572;DHT22;20808;48.974;8.452;2022-11-15T15:07:59;14.40;1.00
34572;DHT22;20808;48.974;8.452;2022-11-15T15:10:29;14.20;99.90
34572;DHT22;20808;48.974;8.452;2022-11-15T15:12:57;14.10;1.00
34572;DHT22;20808;48.974;8.452;2022-11-15T15:15:25;14.00;1.00
34572;DHT22;20808;48.974;8.452;2022-11-15T15:17:53;13.90;1.00
34572;DHT22;20808;48.974;8.452;2022-11-15T15:20:20;13.90;1.00
34572;DHT22;20808;48.974;8.452;2022-11-15T15:22:47;13.90;1.00
34572;DHT22;20808;48.974;8.452;2022-11-15T15:25:23;13.90;1.00
34572;DHT22;20808;48.974;8.452;2022-11-15T15:27:52;13.90;1.00
34572;DHT22;20808;48.974;8.452;2022-11-15T15:30:20;13.90;1.00
34572;DHT22;20808;48.974;8.452;2022-11-15T15:32:47;13.80;1.00
34572;DHT22;20808;48.974;8.452;2022-11-15T15:35:16;13.80;1.00
34572;DHT22;20808;48.974;8.452;2022-11-15T15:37:44;13.80;1.00
34572;DHT22;20808;48.974;8.452;2022-11-15T15:40:15;13.80;1.00
34572;DHT22;20808;48.974;8.452;2022-11-15T15:42:42;13.70;1.00
34572;DHT22;20808;48.974;8.452;2022-11-15T15:45:10;13.70;1.00
34572;DHT22;20808;48.974;8.452;2022-11-15T15:47:37;13.70;1.00
34572;DHT22;20808;48.974;8.452;2022-11-15T15:50:05;13.70;1.00
34572;DHT22;20808;48.974;8.452;2022-11-15T15:52:40;13.60;1.00
34572;DHT22;20808;48.974;8.452;2022-11-15T15:55:07;13.70;1.00
34572;DHT22;20808;48.974;8.452;2022-11-15T15:57:35;13.70;1.00
34572;DHT22;20808;48.974;8.452;2022-11-15T16:00:02;13.70;1.00
34572;DHT22;20808;48.974;8.452;2022-11-15T16:02:29;13.60;1.00
34572;DHT22;20808;48.974;8.452;2022-11-15T16:04:57;13.60;1.00
34572;DHT22;20808;48.974;8.452;2022-11-15T16:07:23;13.60;1.00
34572;DHT22;20808;48.974;8.452;2022-11-15T16:09:51;13.60;1.00